createdAt,value
2018-04-16T00:02:25.150Z,14.22
2018-04-16T00:04:56.621Z,14.52
2018-04-16T00:07:28.961Z,14.92
2018-04-16T00:10:01.095Z,14.59
2018-04-16T00:12:45.248Z,14.98
2018-04-16T00:15:17.130Z,14.52
2018-04-16T00:20:29.505Z,15.16
2018-04-16T00:23:03.001Z,14.96
2018-04-16T00:25:40.362Z,15.09
2018-04-16T00:28:11.461Z,14.67
2018-04-16T00:30:42.876Z,14.75
2018-04-16T00:35:23.682Z,14.58
2018-04-16T00:40:06.717Z,14.32
2018-04-16T00:44:59.419Z,14.46
2018-04-16T00:47:41.247Z,15.14
2018-04-16T00:52:19.269Z,14.90
2018-04-16T00:57:00.440Z,15.10
2018-04-16T01:02:01.377Z,14.76
2018-04-16T01:06:54.908Z,15.02
2018-04-16T01:09:37.908Z,14.73
2018-04-16T01:12:21.155Z,15.00
2018-04-16T01:18:11.149Z,14.91
2018-04-16T01:22:51.256Z,14.94
2018-04-16T01:27:32.700Z,14.56
2018-04-16T01:32:17.918Z,14.45
2018-04-16T01:36:58.333Z,14.79
2018-04-16T01:56:10.933Z,14.25
2018-04-16T02:23:42.121Z,14.68
2018-04-16T02:27:37.840Z,14.65
2018-04-16T02:37:28.048Z,14.20
2018-04-16T02:47:58.699Z,14.24
2018-04-16T02:58:09.869Z,14.45
2018-04-16T03:02:58.736Z,14.05
2018-04-16T03:15:22.356Z,13.62
2018-04-16T03:20:29.321Z,13.38
2018-04-16T03:23:42.687Z,14.03
2018-04-16T03:29:34.151Z,14.26
2018-04-16T03:37:33.218Z,14.35
2018-04-16T04:08:11.335Z,14.00
2018-04-16T04:31:52.553Z,12.69
2018-04-16T04:34:23.477Z,12.82
2018-04-16T04:36:54.717Z,12.92
2018-04-16T04:39:25.604Z,12.92
2018-04-16T04:41:56.811Z,13.12
2018-04-16T04:44:27.940Z,13.75
2018-04-16T04:46:58.845Z,14.06
2018-04-16T04:49:29.950Z,14.15
2018-04-16T04:52:06.184Z,14.16
2018-04-16T04:54:39.670Z,14.07
2018-04-16T04:57:15.757Z,14.30
2018-04-16T04:59:46.737Z,14.22
2018-04-16T05:02:17.644Z,14.29
2018-04-16T05:04:49.100Z,14.32
2018-04-16T05:07:19.896Z,14.33
2018-04-16T05:09:50.760Z,14.28
2018-04-16T05:12:21.658Z,14.30
2018-04-16T05:14:52.439Z,14.37
2018-04-16T05:17:26.852Z,14.43
2018-04-16T05:19:57.608Z,14.30
2018-04-16T05:22:29.056Z,14.15
2018-04-16T05:25:00.118Z,14.32
2018-04-16T05:27:31.341Z,14.26
2018-04-16T05:30:02.272Z,14.28
2018-04-16T05:32:33.431Z,14.26
2018-04-16T05:35:04.398Z,14.10
2018-04-16T05:37:35.284Z,14.25
2018-04-16T05:40:06.114Z,14.20
2018-04-16T05:42:37.150Z,13.79
2018-04-16T05:45:08.129Z,13.54
2018-04-16T05:47:39.049Z,13.94
2018-04-16T05:50:10.017Z,14.08
2018-04-16T05:52:41.213Z,14.05
2018-04-16T05:55:11.994Z,14.26
2018-04-16T05:57:42.929Z,14.41
2018-04-16T06:00:13.856Z,14.16
2018-04-16T06:02:45.050Z,14.33
2018-04-16T06:05:15.881Z,14.12
2018-04-16T06:07:48.180Z,13.94
2018-04-16T06:10:20.257Z,13.68
2018-04-16T06:12:52.181Z,14.14
2018-04-16T06:15:23.040Z,13.55
2018-04-16T06:17:55.119Z,14.12
2018-04-16T06:20:26.609Z,14.23
2018-04-16T06:22:59.181Z,14.41
2018-04-16T06:25:31.830Z,14.52
2018-04-16T06:28:03.709Z,14.04
2018-04-16T06:30:37.098Z,13.53
2018-04-16T06:33:09.408Z,13.16
2018-04-16T06:35:41.340Z,13.64
2018-04-16T06:38:25.270Z,13.41
2018-04-16T06:40:57.143Z,13.87
2018-04-16T06:43:34.427Z,13.78
2018-04-16T06:46:19.147Z,13.81
2018-04-16T06:48:50.664Z,13.81
2018-04-16T06:51:22.503Z,14.12
2018-04-16T06:53:54.069Z,14.41
2018-04-16T06:56:25.514Z,14.53
2018-04-16T06:58:57.847Z,14.62
2018-04-16T07:01:29.037Z,14.58
2018-04-16T07:04:04.843Z,14.68
2018-04-16T07:06:39.998Z,14.37
2018-04-16T07:12:15.452Z,14.68
2018-04-16T07:14:47.039Z,14.60
2018-04-16T07:17:18.750Z,14.32
2018-04-16T07:19:50.689Z,14.61
2018-04-16T07:22:23.579Z,14.85
2018-04-16T07:24:54.667Z,14.76
2018-04-16T07:27:26.565Z,14.95
2018-04-16T07:29:57.509Z,14.82
2018-04-16T07:32:29.409Z,14.83
2018-04-16T07:35:00.555Z,14.97
2018-04-16T07:37:32.024Z,14.95
2018-04-16T07:40:06.166Z,15.07
2018-04-16T07:42:38.182Z,14.92
2018-04-16T07:45:12.200Z,15.01
2018-04-16T07:47:43.104Z,15.25
2018-04-16T07:50:13.768Z,15.34
2018-04-16T07:52:44.338Z,15.09
2018-04-16T07:55:15.244Z,15.23
2018-04-16T07:57:45.803Z,14.84
2018-04-16T08:00:26.838Z,15.07
2018-04-16T08:03:01.340Z,14.92
2018-04-16T08:05:38.411Z,15.05
2018-04-16T08:08:09.112Z,15.19
2018-04-16T08:10:47.131Z,15.05
2018-04-16T08:13:19.265Z,15.23
2018-04-16T08:16:03.091Z,14.92
2018-04-16T08:22:00.770Z,14.92
2018-04-16T08:24:31.909Z,15.05
2018-04-16T08:27:03.643Z,14.63
2018-04-16T08:29:36.131Z,15.11
2018-04-16T08:32:07.608Z,15.51
2018-04-16T08:34:38.726Z,15.07
2018-04-16T08:37:09.743Z,14.98
2018-04-16T08:39:42.263Z,15.11
2018-04-16T08:42:14.653Z,15.21
2018-04-16T08:44:46.178Z,15.46
2018-04-16T08:47:17.059Z,15.14
2018-04-16T08:49:48.129Z,15.04
2018-04-16T08:52:19.250Z,15.52
2018-04-16T08:54:50.459Z,15.54
2018-04-16T08:57:21.495Z,15.81
2018-04-16T08:59:52.558Z,15.96
2018-04-16T09:02:23.679Z,16.03
2018-04-16T09:04:55.449Z,15.40
2018-04-16T09:07:26.224Z,15.60
2018-04-16T09:09:56.950Z,15.79
2018-04-16T09:12:46.652Z,15.31
2018-04-16T09:15:17.285Z,15.18
2018-04-16T09:17:48.031Z,15.23
2018-04-16T09:20:20.669Z,14.91
2018-04-16T09:22:51.532Z,14.86
2018-04-16T09:25:22.195Z,14.85
2018-04-16T09:27:52.896Z,15.03
2018-04-16T09:30:23.565Z,14.96
2018-04-16T09:32:54.095Z,15.27
2018-04-16T09:35:25.077Z,15.27
2018-04-16T09:37:56.428Z,15.47
2018-04-16T09:40:27.156Z,15.31
2018-04-16T09:42:57.740Z,15.33
2018-04-16T09:45:32.311Z,15.42
2018-04-16T09:48:04.560Z,14.84
2018-04-16T09:50:35.417Z,15.24
2018-04-16T09:53:06.465Z,15.27
2018-04-16T09:55:37.251Z,15.23
2018-04-16T09:58:08.881Z,14.87
2018-04-16T10:00:43.999Z,14.86
2018-04-16T10:03:19.342Z,14.80
2018-04-16T10:05:50.783Z,15.05
2018-04-16T10:08:21.667Z,15.00
2018-04-16T10:10:52.500Z,15.44
2018-04-16T10:13:24.175Z,15.45
2018-04-16T10:15:55.006Z,15.09
2018-04-16T10:18:25.771Z,14.91
2018-04-16T10:20:56.896Z,14.74
2018-04-16T10:23:29.496Z,14.54
2018-04-16T10:26:00.789Z,14.49
2018-04-16T10:28:31.658Z,14.50
2018-04-16T10:31:02.652Z,14.70
2018-04-16T10:33:33.759Z,14.81
2018-04-16T10:36:04.725Z,15.09
2018-04-16T10:38:35.623Z,15.14
2018-04-16T10:41:06.596Z,15.48
2018-04-16T10:43:37.477Z,15.34
2018-04-16T10:46:08.433Z,16.05
2018-04-16T10:48:39.885Z,15.45
2018-04-16T10:51:10.675Z,16.00
2018-04-16T10:53:44.238Z,15.59
2018-04-16T10:56:16.186Z,15.81
2018-04-16T10:58:49.325Z,15.45
2018-04-16T11:01:20.796Z,15.65
2018-04-16T11:03:51.960Z,15.42
2018-04-16T11:06:23.158Z,15.78
2018-04-16T11:08:54.497Z,15.83
2018-04-16T11:11:25.793Z,16.08
2018-04-16T11:13:57.005Z,15.42
2018-04-16T11:16:28.355Z,15.57
2018-04-16T11:18:59.618Z,15.82
2018-04-16T11:21:31.772Z,15.66
2018-04-16T11:24:03.797Z,15.60
2018-04-16T11:26:34.694Z,16.09
2018-04-16T11:29:05.923Z,16.24
2018-04-16T11:31:36.706Z,16.26
2018-04-16T11:34:07.709Z,15.84
2018-04-16T11:36:40.521Z,16.05
2018-04-16T11:39:11.430Z,15.99
2018-04-16T11:41:42.488Z,16.04
2018-04-16T11:44:13.510Z,16.09
2018-04-16T11:46:44.925Z,16.12
2018-04-16T11:49:17.024Z,15.82
2018-04-16T11:51:48.431Z,15.93
2018-04-16T11:54:23.133Z,15.83
2018-04-16T11:56:55.437Z,15.76
2018-04-16T11:59:26.360Z,15.41
2018-04-16T12:02:02.921Z,15.21
2018-04-16T12:04:35.028Z,15.33
2018-04-16T12:07:06.620Z,15.42
2018-04-16T12:09:38.385Z,14.91
2018-04-16T12:21:34.924Z,14.79
2018-04-16T12:24:10.416Z,14.58
2018-04-16T12:26:44.452Z,14.65
2018-04-16T12:29:16.870Z,14.31
2018-04-16T12:31:48.171Z,14.40
2018-04-16T12:34:19.722Z,14.49
2018-04-16T12:36:50.803Z,14.11
2018-04-16T12:39:26.043Z,14.41
2018-04-16T12:42:05.073Z,14.22
2018-04-16T12:44:46.763Z,14.11
2018-04-16T12:47:21.592Z,14.66
2018-04-16T12:49:56.542Z,14.01
2018-04-16T12:52:27.872Z,14.36
2018-04-16T12:54:59.470Z,14.32
2018-04-16T12:57:30.342Z,14.47
2018-04-16T13:00:01.534Z,14.52
2018-04-16T13:02:32.692Z,14.79
2018-04-16T13:05:05.102Z,14.51
2018-04-16T13:07:35.991Z,14.97
2018-04-16T13:10:09.124Z,14.43
2018-04-16T13:12:39.873Z,14.46
2018-04-16T13:15:10.663Z,14.58
2018-04-16T13:17:41.475Z,14.62
2018-04-16T13:20:12.202Z,14.35
2018-04-16T13:22:43.058Z,14.88
2018-04-16T13:25:13.907Z,14.73
2018-04-16T13:27:45.053Z,14.51
2018-04-16T13:30:17.122Z,14.71
2018-04-16T13:32:48.049Z,14.53
2018-04-16T13:35:19.612Z,14.80
2018-04-16T13:37:50.257Z,14.82
2018-04-16T13:40:21.244Z,15.34
2018-04-16T13:42:52.085Z,15.35
2018-04-16T13:45:23.284Z,15.34
2018-04-16T13:47:55.045Z,15.51
2018-04-16T13:50:30.870Z,15.05
2018-04-16T13:53:10.423Z,14.99
2018-04-16T13:55:43.741Z,15.08
2018-04-16T13:58:14.433Z,15.23
2018-04-16T14:00:45.329Z,14.91
2018-04-16T14:03:16.413Z,15.24
2018-04-16T14:05:47.215Z,15.32
2018-04-16T14:08:18.213Z,15.32
2018-04-16T14:10:50.345Z,15.25
2018-04-16T14:13:22.460Z,15.11
2018-04-16T14:15:53.595Z,14.83
2018-04-16T14:18:24.914Z,15.21
2018-04-16T14:20:55.630Z,14.99
2018-04-16T14:23:26.634Z,14.96
2018-04-16T14:25:57.375Z,15.13
2018-04-16T14:31:46.341Z,15.55
2018-04-16T14:34:19.501Z,15.66
2018-04-16T14:36:53.979Z,15.51
2018-04-16T14:39:24.906Z,15.55
2018-04-16T14:41:56.694Z,15.44
2018-04-16T14:44:27.653Z,15.57
2018-04-16T14:46:58.602Z,15.41
2018-04-16T14:49:29.823Z,15.25
2018-04-16T14:52:00.701Z,14.59
2018-04-16T14:54:33.468Z,14.10
2018-04-16T14:57:04.744Z,13.96
2018-04-16T14:59:35.443Z,14.09
2018-04-16T15:02:07.131Z,14.28
2018-04-16T15:04:38.283Z,13.72
2018-04-16T15:10:27.906Z,13.71
2018-04-16T15:12:59.830Z,13.41
2018-04-16T15:15:31.663Z,13.25
2018-04-16T15:18:02.584Z,13.78
2018-04-16T15:20:37.072Z,14.23
2018-04-16T15:23:09.876Z,13.85
2018-04-16T15:25:44.875Z,13.74
2018-04-16T15:28:16.205Z,13.69
2018-04-16T15:30:47.590Z,13.70
2018-04-16T15:33:19.211Z,14.05
2018-04-16T15:35:50.638Z,14.33
2018-04-16T15:38:21.636Z,14.60
2018-04-16T15:44:01.590Z,15.04
2018-04-16T15:46:32.604Z,15.19
2018-04-16T15:49:03.687Z,15.27
2018-04-16T15:51:34.492Z,15.14
2018-04-16T15:54:06.224Z,14.98
2018-04-16T15:56:37.004Z,14.40
2018-04-16T15:59:08.734Z,14.86
2018-04-16T16:01:39.951Z,14.64
2018-04-16T16:04:11.202Z,14.65
2018-04-16T16:06:42.389Z,14.83
2018-04-16T16:09:13.642Z,14.51
2018-04-16T16:11:46.227Z,14.29
2018-04-16T16:14:17.657Z,13.93
2018-04-16T16:16:49.097Z,13.64
2018-04-16T16:19:20.966Z,13.59
2018-04-16T16:21:52.302Z,13.83
2018-04-16T16:24:23.950Z,13.91
2018-04-16T16:26:54.886Z,14.06
2018-04-16T16:29:26.231Z,14.61
2018-04-16T16:31:57.521Z,14.28
2018-04-16T16:34:28.833Z,14.29
2018-04-16T16:36:59.911Z,14.34
2018-04-16T16:39:31.188Z,14.31
2018-04-16T16:42:02.551Z,14.79
2018-04-16T16:44:34.785Z,14.95
2018-04-16T16:47:07.406Z,14.37
2018-04-16T16:49:38.541Z,14.25
2018-04-16T16:52:09.900Z,13.89
2018-04-16T16:54:40.937Z,14.28
2018-04-16T16:57:12.002Z,14.26
2018-04-16T16:59:42.907Z,14.14
2018-04-16T17:02:13.646Z,15.02
2018-04-16T17:04:44.689Z,15.27
2018-04-16T17:07:15.306Z,14.42
2018-04-16T17:09:46.272Z,14.43
2018-04-16T17:12:16.920Z,15.12
2018-04-16T17:14:47.833Z,15.06
2018-04-16T17:17:20.994Z,14.67
2018-04-16T17:19:52.050Z,14.79
2018-04-16T17:22:22.892Z,14.72
2018-04-16T17:24:53.718Z,14.33
2018-04-16T17:27:24.304Z,14.22
2018-04-16T17:29:55.033Z,14.73
2018-04-16T17:32:25.921Z,15.09
2018-04-16T17:34:56.723Z,15.22
2018-04-16T17:37:27.443Z,15.31
2018-04-16T17:39:58.127Z,14.63
2018-04-16T17:42:28.729Z,14.71
2018-04-16T17:44:59.837Z,15.08
2018-04-16T17:47:32.704Z,14.86
2018-04-16T17:50:04.512Z,14.89
2018-04-16T17:52:35.391Z,14.99
2018-04-16T17:55:07.566Z,14.93
2018-04-16T17:57:38.497Z,14.95
2018-04-16T18:00:09.365Z,14.95
2018-04-16T18:02:40.008Z,15.03
2018-04-16T18:05:10.939Z,14.97
2018-04-16T18:07:41.649Z,13.89
2018-04-16T18:10:14.585Z,13.60
2018-04-16T18:12:45.764Z,13.52
2018-04-16T18:15:18.482Z,13.43
2018-04-16T18:17:50.317Z,13.48
2018-04-16T18:20:21.674Z,14.02
2018-04-16T18:22:54.544Z,14.50
2018-04-16T18:25:26.485Z,14.49
2018-04-16T18:27:57.922Z,14.43
2018-04-16T18:30:28.681Z,14.39
2018-04-16T18:32:59.313Z,14.13
2018-04-16T18:35:31.097Z,14.10
2018-04-16T18:38:03.416Z,14.29
2018-04-16T18:40:35.369Z,13.85
2018-04-16T18:43:07.267Z,14.07
2018-04-16T18:45:38.304Z,14.23
2018-04-16T18:48:09.190Z,14.05
2018-04-16T18:50:40.778Z,14.01
2018-04-16T18:53:11.534Z,13.95
2018-04-16T18:55:42.197Z,13.94
2018-04-16T18:58:13.357Z,14.00
2018-04-16T19:00:44.072Z,13.88
2018-04-16T19:03:14.783Z,12.92
2018-04-16T19:05:45.941Z,12.71
2018-04-16T19:08:16.669Z,12.28
2018-04-16T19:10:47.432Z,13.09
2018-04-16T19:13:18.084Z,13.50
2018-04-16T19:15:49.332Z,13.65
2018-04-16T19:18:20.733Z,13.51
2018-04-16T19:21:11.842Z,13.09
2018-04-16T19:23:52.091Z,13.40
2018-04-16T19:26:25.583Z,12.85
2018-04-16T19:28:59.151Z,13.12
2018-04-16T19:31:32.018Z,13.52
2018-04-16T19:35:16.842Z,13.48
2018-04-16T19:40:50.217Z,12.45
2018-04-16T19:43:23.439Z,13.16
2018-04-16T19:45:58.711Z,13.10
2018-04-16T19:48:33.990Z,12.41
2018-04-16T19:51:06.415Z,12.22
2018-04-16T19:53:39.706Z,12.63
2018-04-16T19:56:26.342Z,13.21
2018-04-16T19:58:58.812Z,13.21
2018-04-16T20:01:33.797Z,13.49
2018-04-16T20:04:10.332Z,13.44
2018-04-16T20:06:42.728Z,13.51
2018-04-16T20:09:16.008Z,13.58
2018-04-16T20:11:49.138Z,13.48
2018-04-16T20:14:21.635Z,13.23
2018-04-16T20:17:03.224Z,13.57
2018-04-16T21:00:01.513Z,13.09
2018-04-16T21:06:29.438Z,13.35
2018-04-16T21:09:03.325Z,13.20
2018-04-16T21:11:51.714Z,13.30
2018-04-16T21:14:41.586Z,13.37
2018-04-16T21:49:48.009Z,13.28
2018-04-16T22:05:16.709Z,13.10
2018-04-16T22:07:48.528Z,13.20
2018-04-16T22:10:19.929Z,13.14
2018-04-16T22:12:51.633Z,12.53
2018-04-16T22:15:23.287Z,12.11
2018-04-16T22:18:02.220Z,11.94
2018-04-16T22:20:33.988Z,11.74
2018-04-16T22:23:06.120Z,11.83
2018-04-16T22:25:37.741Z,12.54
2018-04-16T22:28:21.460Z,12.92
2018-04-16T22:30:53.202Z,12.90
2018-04-16T22:37:07.043Z,13.02
2018-04-16T22:39:39.020Z,12.97
2018-04-16T22:50:42.843Z,13.06
2018-04-16T22:56:36.914Z,12.14
2018-04-16T23:02:12.109Z,12.00
2018-04-16T23:04:43.951Z,12.58
2018-04-16T23:07:19.308Z,12.44
2018-04-16T23:09:50.891Z,12.58
2018-04-16T23:12:23.899Z,12.75
2018-04-16T23:14:55.288Z,12.66
2018-04-16T23:17:26.535Z,12.79
2018-04-16T23:19:57.849Z,12.82
2018-04-16T23:22:29.173Z,12.69
2018-04-16T23:25:00.391Z,12.68
2018-04-16T23:27:31.654Z,12.32
2018-04-16T23:30:04.077Z,12.36
2018-04-16T23:32:36.233Z,12.02
2018-04-16T23:35:08.289Z,12.18
2018-04-16T23:37:51.735Z,12.37
2018-04-16T23:40:28.849Z,12.35
2018-04-16T23:46:20.215Z,12.44
2018-04-16T23:48:51.486Z,12.35
2018-04-16T23:51:22.644Z,12.25
2018-04-16T23:53:54.524Z,12.04
2018-04-16T23:56:25.728Z,12.08
2018-04-16T23:58:56.961Z,12.36
